sensor_id;sensor_type;location;lat;lon;timestamp;P1;durP1;ratioP1;P2;durP2;ratioP2
73550;SDS011;61816;53.582;10.096;2023-04-29T00:01:04;44.92;;;21.45;;
73550;SDS011;61816;53.582;10.096;2023-04-29T00:03:30;38.22;;;21.85;;
73550;SDS011;61816;53.582;10.096;2023-04-29T00:05:59;42.95;;;20.65;;
73550;SDS011;61816;53.582;10.096;2023-04-29T00:08:25;32.72;;;21.02;;
73550;SDS011;61816;53.582;10.096;2023-04-29T00:10:51;35.45;;;20.45;;
73550;SDS011;61816;53.582;10.096;2023-04-29T00:13:16;43.50;;;23.23;;
73550;SDS011;61816;53.582;10.096;2023-04-29T00:15:42;34.53;;;20.65;;
73550;SDS011;61816;53.582;10.096;2023-04-29T00:18:08;39.45;;;22.65;;
73550;SDS011;61816;53.582;10.096;2023-04-29T00:20:34;40.90;;;24.98;;
73550;SDS011;61816;53.582;10.096;2023-04-29T00:23:00;43.70;;;24.63;;
73550;SDS011;61816;53.582;10.096;2023-04-29T00:25:26;39.75;;;23.20;;
73550;SDS011;61816;53.582;10.096;2023-04-29T00:27:51;43.42;;;23.75;;
73550;SDS011;61816;53.582;10.096;2023-04-29T00:30:17;45.53;;;26.40;;
73550;SDS011;61816;53.582;10.096;2023-04-29T00:32:42;43.75;;;24.70;;
73550;SDS011;61816;53.582;10.096;2023-04-29T00:35:09;38.25;;;23.33;;
73550;SDS011;61816;53.582;10.096;2023-04-29T00:37:35;36.42;;;24.80;;
73550;SDS011;61816;53.582;10.096;2023-04-29T00:40:00;46.22;;;25.27;;
73550;SDS011;61816;53.582;10.096;2023-04-29T00:42:26;47.13;;;26.05;;
73550;SDS011;61816;53.582;10.096;2023-04-29T00:44:53;44.53;;;25.48;;
73550;SDS011;61816;53.582;10.096;2023-04-29T00:47:18;48.53;;;25.02;;
73550;SDS011;61816;53.582;10.096;2023-04-29T00:49:43;44.80;;;24.73;;
73550;SDS011;61816;53.582;10.096;2023-04-29T00:52:12;33.08;;;23.20;;
73550;SDS011;61816;53.582;10.096;2023-04-29T00:54:38;46.50;;;26.55;;
73550;SDS011;61816;53.582;10.096;2023-04-29T00:57:05;39.58;;;24.98;;
73550;SDS011;61816;53.582;10.096;2023-04-29T00:59:31;45.28;;;25.67;;
73550;SDS011;61816;53.582;10.096;2023-04-29T01:02:01;40.42;;;24.42;;
73550;SDS011;61816;53.582;10.096;2023-04-29T01:04:28;41.65;;;25.33;;
73550;SDS011;61816;53.582;10.096;2023-04-29T01:09:52;50.97;;;28.15;;
73550;SDS011;61816;53.582;10.096;2023-04-29T01:12:31;51.47;;;27.80;;
73550;SDS011;61816;53.582;10.096;2023-04-29T01:15:04;49.90;;;26.85;;
73550;SDS011;61816;53.582;10.096;2023-04-29T01:17:38;52.15;;;27.50;;
73550;SDS011;61816;53.582;10.096;2023-04-29T01:20:08;50.42;;;28.48;;
73550;SDS011;61816;53.582;10.096;2023-04-29T01:22:34;42.08;;;25.13;;
73550;SDS011;61816;53.582;10.096;2023-04-29T01:25:00;46.28;;;27.27;;
73550;SDS011;61816;53.582;10.096;2023-04-29T01:27:30;51.92;;;28.08;;
73550;SDS011;61816;53.582;10.096;2023-04-29T01:30:11;47.72;;;26.08;;
73550;SDS011;61816;53.582;10.096;2023-04-29T01:32:52;54.53;;;27.63;;
73550;SDS011;61816;53.582;10.096;2023-04-29T01:40:49;51.20;;;29.52;;
73550;SDS011;61816;53.582;10.096;2023-04-29T01:43:23;46.83;;;28.50;;
73550;SDS011;61816;53.582;10.096;2023-04-29T01:45:52;48.97;;;29.60;;
73550;SDS011;61816;53.582;10.096;2023-04-29T01:48:20;54.28;;;31.25;;
73550;SDS011;61816;53.582;10.096;2023-04-29T01:50:46;58.08;;;30.50;;
73550;SDS011;61816;53.582;10.096;2023-04-29T01:53:11;66.65;;;32.20;;
73550;SDS011;61816;53.582;10.096;2023-04-29T01:55:37;55.85;;;32.53;;
73550;SDS011;61816;53.582;10.096;2023-04-29T01:58:02;55.13;;;32.00;;
73550;SDS011;61816;53.582;10.096;2023-04-29T02:00:27;63.33;;;33.47;;
73550;SDS011;61816;53.582;10.096;2023-04-29T02:02:53;64.75;;;34.33;;
73550;SDS011;61816;53.582;10.096;2023-04-29T02:05:18;74.60;;;38.20;;
73550;SDS011;61816;53.582;10.096;2023-04-29T02:07:44;65.53;;;35.60;;
73550;SDS011;61816;53.582;10.096;2023-04-29T02:10:09;58.83;;;33.20;;
73550;SDS011;61816;53.582;10.096;2023-04-29T02:12:36;57.55;;;29.98;;
73550;SDS011;61816;53.582;10.096;2023-04-29T02:15:01;50.65;;;29.77;;
73550;SDS011;61816;53.582;10.096;2023-04-29T02:17:26;58.75;;;31.48;;
73550;SDS011;61816;53.582;10.096;2023-04-29T02:19:52;52.08;;;32.90;;
73550;SDS011;61816;53.582;10.096;2023-04-29T02:22:19;58.55;;;31.52;;
73550;SDS011;61816;53.582;10.096;2023-04-29T02:24:45;52.85;;;30.52;;
73550;SDS011;61816;53.582;10.096;2023-04-29T02:27:10;52.47;;;31.02;;
73550;SDS011;61816;53.582;10.096;2023-04-29T02:29:35;57.38;;;31.13;;
73550;SDS011;61816;53.582;10.096;2023-04-29T02:32:01;52.03;;;32.35;;
73550;SDS011;61816;53.582;10.096;2023-04-29T02:34:26;53.42;;;30.42;;
73550;SDS011;61816;53.582;10.096;2023-04-29T02:36:52;55.83;;;29.80;;
73550;SDS011;61816;53.582;10.096;2023-04-29T02:39:17;60.63;;;34.30;;
73550;SDS011;61816;53.582;10.096;2023-04-29T02:41:44;62.58;;;33.38;;
73550;SDS011;61816;53.582;10.096;2023-04-29T02:44:09;61.53;;;31.15;;
73550;SDS011;61816;53.582;10.096;2023-04-29T02:46:35;60.28;;;32.88;;
73550;SDS011;61816;53.582;10.096;2023-04-29T02:49:00;65.15;;;35.03;;
73550;SDS011;61816;53.582;10.096;2023-04-29T02:51:26;60.80;;;33.85;;
73550;SDS011;61816;53.582;10.096;2023-04-29T02:53:52;56.20;;;31.52;;
73550;SDS011;61816;53.582;10.096;2023-04-29T02:56:18;66.13;;;34.72;;
73550;SDS011;61816;53.582;10.096;2023-04-29T02:58:43;61.17;;;32.55;;
73550;SDS011;61816;53.582;10.096;2023-04-29T03:01:08;66.15;;;36.03;;
73550;SDS011;61816;53.582;10.096;2023-04-29T03:03:34;70.15;;;34.75;;
73550;SDS011;61816;53.582;10.096;2023-04-29T03:05:59;59.75;;;32.53;;
73550;SDS011;61816;53.582;10.096;2023-04-29T03:08:24;56.83;;;31.42;;
73550;SDS011;61816;53.582;10.096;2023-04-29T03:10:50;59.67;;;31.92;;
73550;SDS011;61816;53.582;10.096;2023-04-29T03:13:15;71.72;;;35.83;;
73550;SDS011;61816;53.582;10.096;2023-04-29T03:15:40;61.03;;;33.17;;
73550;SDS011;61816;53.582;10.096;2023-04-29T03:18:06;54.08;;;32.92;;
73550;SDS011;61816;53.582;10.096;2023-04-29T03:20:32;62.60;;;32.65;;
73550;SDS011;61816;53.582;10.096;2023-04-29T03:22:57;53.08;;;30.27;;
73550;SDS011;61816;53.582;10.096;2023-04-29T03:25:23;61.00;;;34.80;;
73550;SDS011;61816;53.582;10.096;2023-04-29T03:27:49;58.63;;;30.75;;
73550;SDS011;61816;53.582;10.096;2023-04-29T03:30:14;60.55;;;31.27;;
73550;SDS011;61816;53.582;10.096;2023-04-29T03:32:40;66.75;;;34.45;;
73550;SDS011;61816;53.582;10.096;2023-04-29T03:35:05;57.08;;;31.63;;
73550;SDS011;61816;53.582;10.096;2023-04-29T03:37:31;64.05;;;31.50;;
73550;SDS011;61816;53.582;10.096;2023-04-29T03:39:56;59.38;;;30.17;;
73550;SDS011;61816;53.582;10.096;2023-04-29T03:42:21;53.55;;;29.52;;
73550;SDS011;61816;53.582;10.096;2023-04-29T03:44:47;54.90;;;29.35;;
73550;SDS011;61816;53.582;10.096;2023-04-29T03:47:12;57.67;;;30.35;;
73550;SDS011;61816;53.582;10.096;2023-04-29T03:49:38;60.80;;;32.15;;
73550;SDS011;61816;53.582;10.096;2023-04-29T03:52:03;69.63;;;34.00;;
73550;SDS011;61816;53.582;10.096;2023-04-29T03:54:29;58.75;;;30.52;;
73550;SDS011;61816;53.582;10.096;2023-04-29T03:56:54;68.50;;;31.45;;
73550;SDS011;61816;53.582;10.096;2023-04-29T03:59:20;66.75;;;35.95;;
73550;SDS011;61816;53.582;10.096;2023-04-29T04:01:45;60.03;;;33.53;;
73550;SDS011;61816;53.582;10.096;2023-04-29T04:04:11;58.13;;;31.58;;
73550;SDS011;61816;53.582;10.096;2023-04-29T04:06:36;57.30;;;31.05;;
73550;SDS011;61816;53.582;10.096;2023-04-29T04:09:01;58.00;;;31.83;;
73550;SDS011;61816;53.582;10.096;2023-04-29T04:11:27;56.78;;;32.80;;
73550;SDS011;61816;53.582;10.096;2023-04-29T04:13:52;58.85;;;32.15;;
73550;SDS011;61816;53.582;10.096;2023-04-29T04:16:17;59.47;;;34.13;;
73550;SDS011;61816;53.582;10.096;2023-04-29T04:18:43;63.63;;;32.70;;
73550;SDS011;61816;53.582;10.096;2023-04-29T04:21:08;53.90;;;30.05;;
73550;SDS011;61816;53.582;10.096;2023-04-29T04:23:34;65.25;;;33.58;;
73550;SDS011;61816;53.582;10.096;2023-04-29T04:26:00;65.78;;;33.38;;
73550;SDS011;61816;53.582;10.096;2023-04-29T04:28:25;59.20;;;33.47;;
73550;SDS011;61816;53.582;10.096;2023-04-29T04:30:50;58.83;;;31.35;;
73550;SDS011;61816;53.582;10.096;2023-04-29T04:33:16;61.50;;;31.88;;
73550;SDS011;61816;53.582;10.096;2023-04-29T04:35:42;63.65;;;33.20;;
73550;SDS011;61816;53.582;10.096;2023-04-29T04:38:07;57.72;;;32.80;;
73550;SDS011;61816;53.582;10.096;2023-04-29T04:40:33;53.35;;;31.58;;
73550;SDS011;61816;53.582;10.096;2023-04-29T04:42:58;59.50;;;32.10;;
73550;SDS011;61816;53.582;10.096;2023-04-29T04:45:24;50.55;;;29.50;;
73550;SDS011;61816;53.582;10.096;2023-04-29T04:47:50;56.63;;;29.52;;
73550;SDS011;61816;53.582;10.096;2023-04-29T04:50:15;60.35;;;31.58;;
73550;SDS011;61816;53.582;10.096;2023-04-29T04:52:40;51.22;;;30.13;;
73550;SDS011;61816;53.582;10.096;2023-04-29T04:55:06;50.80;;;29.90;;
73550;SDS011;61816;53.582;10.096;2023-04-29T04:57:32;50.35;;;31.50;;
73550;SDS011;61816;53.582;10.096;2023-04-29T04:59:58;54.25;;;31.83;;
73550;SDS011;61816;53.582;10.096;2023-04-29T05:02:23;55.80;;;30.58;;
73550;SDS011;61816;53.582;10.096;2023-04-29T05:04:48;52.17;;;29.27;;
73550;SDS011;61816;53.582;10.096;2023-04-29T05:07:14;59.22;;;32.10;;
73550;SDS011;61816;53.582;10.096;2023-04-29T05:09:39;53.80;;;30.23;;
73550;SDS011;61816;53.582;10.096;2023-04-29T05:12:04;51.55;;;29.33;;
73550;SDS011;61816;53.582;10.096;2023-04-29T05:14:30;47.67;;;27.40;;
73550;SDS011;61816;53.582;10.096;2023-04-29T05:16:58;55.50;;;28.35;;
73550;SDS011;61816;53.582;10.096;2023-04-29T05:19:24;51.88;;;28.25;;
73550;SDS011;61816;53.582;10.096;2023-04-29T05:21:49;44.88;;;28.40;;
73550;SDS011;61816;53.582;10.096;2023-04-29T05:24:15;51.15;;;29.30;;
73550;SDS011;61816;53.582;10.096;2023-04-29T05:26:41;44.25;;;25.73;;
73550;SDS011;61816;53.582;10.096;2023-04-29T05:29:08;49.35;;;26.65;;
73550;SDS011;61816;53.582;10.096;2023-04-29T05:31:34;42.67;;;24.42;;
73550;SDS011;61816;53.582;10.096;2023-04-29T05:34:00;42.97;;;25.10;;
73550;SDS011;61816;53.582;10.096;2023-04-29T05:36:25;51.25;;;24.08;;
73550;SDS011;61816;53.582;10.096;2023-04-29T05:38:52;39.72;;;21.70;;
73550;SDS011;61816;53.582;10.096;2023-04-29T05:41:17;46.47;;;21.88;;
73550;SDS011;61816;53.582;10.096;2023-04-29T05:43:42;41.97;;;21.30;;
73550;SDS011;61816;53.582;10.096;2023-04-29T05:46:08;30.38;;;19.65;;
73550;SDS011;61816;53.582;10.096;2023-04-29T05:48:33;36.47;;;19.17;;
73550;SDS011;61816;53.582;10.096;2023-04-29T05:50:59;30.98;;;19.20;;
73550;SDS011;61816;53.582;10.096;2023-04-29T05:53:24;36.03;;;20.90;;
73550;SDS011;61816;53.582;10.096;2023-04-29T05:55:50;32.92;;;17.92;;
73550;SDS011;61816;53.582;10.096;2023-04-29T05:58:15;35.30;;;18.10;;
73550;SDS011;61816;53.582;10.096;2023-04-29T06:00:41;32.05;;;16.80;;
73550;SDS011;61816;53.582;10.096;2023-04-29T06:03:08;35.13;;;16.58;;
73550;SDS011;61816;53.582;10.096;2023-04-29T06:05:34;28.70;;;16.27;;
73550;SDS011;61816;53.582;10.096;2023-04-29T06:08:00;27.67;;;15.57;;
73550;SDS011;61816;53.582;10.096;2023-04-29T06:10:26;25.13;;;14.38;;
73550;SDS011;61816;53.582;10.096;2023-04-29T06:12:51;31.02;;;14.85;;
73550;SDS011;61816;53.582;10.096;2023-04-29T06:15:16;27.50;;;15.88;;
73550;SDS011;61816;53.582;10.096;2023-04-29T06:17:42;22.98;;;13.52;;
73550;SDS011;61816;53.582;10.096;2023-04-29T06:20:07;28.55;;;14.65;;
73550;SDS011;61816;53.582;10.096;2023-04-29T06:22:33;24.38;;;13.60;;
73550;SDS011;61816;53.582;10.096;2023-04-29T06:24:58;24.17;;;12.43;;
73550;SDS011;61816;53.582;10.096;2023-04-29T06:27:24;31.15;;;14.00;;
73550;SDS011;61816;53.582;10.096;2023-04-29T06:29:49;24.90;;;12.80;;
73550;SDS011;61816;53.582;10.096;2023-04-29T06:32:15;24.63;;;14.15;;
73550;SDS011;61816;53.582;10.096;2023-04-29T06:34:40;23.33;;;13.10;;
73550;SDS011;61816;53.582;10.096;2023-04-29T06:37:05;25.08;;;13.63;;
73550;SDS011;61816;53.582;10.096;2023-04-29T06:39:31;26.10;;;12.52;;
73550;SDS011;61816;53.582;10.096;2023-04-29T06:41:56;23.08;;;12.35;;
73550;SDS011;61816;53.582;10.096;2023-04-29T06:44:22;30.88;;;14.02;;
73550;SDS011;61816;53.582;10.096;2023-04-29T06:46:48;24.25;;;13.05;;
73550;SDS011;61816;53.582;10.096;2023-04-29T06:49:16;22.70;;;11.85;;
73550;SDS011;61816;53.582;10.096;2023-04-29T06:51:42;23.02;;;12.95;;
73550;SDS011;61816;53.582;10.096;2023-04-29T06:54:08;26.30;;;11.73;;
73550;SDS011;61816;53.582;10.096;2023-04-29T06:56:33;25.23;;;11.65;;
73550;SDS011;61816;53.582;10.096;2023-04-29T06:58:59;28.85;;;13.63;;
73550;SDS011;61816;53.582;10.096;2023-04-29T07:01:24;27.33;;;12.85;;
73550;SDS011;61816;53.582;10.096;2023-04-29T07:03:50;31.42;;;14.02;;
73550;SDS011;61816;53.582;10.096;2023-04-29T07:06:16;24.58;;;11.43;;
73550;SDS011;61816;53.582;10.096;2023-04-29T07:08:42;24.38;;;12.25;;
73550;SDS011;61816;53.582;10.096;2023-04-29T07:11:07;23.38;;;11.27;;
73550;SDS011;61816;53.582;10.096;2023-04-29T07:13:32;22.67;;;11.38;;
73550;SDS011;61816;53.582;10.096;2023-04-29T07:15:58;22.92;;;10.88;;
73550;SDS011;61816;53.582;10.096;2023-04-29T07:18:23;24.17;;;10.30;;
73550;SDS011;61816;53.582;10.096;2023-04-29T07:20:48;19.92;;;9.93;;
73550;SDS011;61816;53.582;10.096;2023-04-29T07:23:16;19.98;;;10.88;;
73550;SDS011;61816;53.582;10.096;2023-04-29T07:25:41;25.33;;;10.20;;
73550;SDS011;61816;53.582;10.096;2023-04-29T07:28:06;18.15;;;9.65;;
73550;SDS011;61816;53.582;10.096;2023-04-29T07:30:34;18.65;;;8.85;;
73550;SDS011;61816;53.582;10.096;2023-04-29T07:33:00;22.15;;;9.07;;
73550;SDS011;61816;53.582;10.096;2023-04-29T07:35:26;17.02;;;7.63;;
73550;SDS011;61816;53.582;10.096;2023-04-29T07:37:51;17.58;;;9.10;;
73550;SDS011;61816;53.582;10.096;2023-04-29T07:40:17;19.95;;;8.68;;
73550;SDS011;61816;53.582;10.096;2023-04-29T07:42:42;15.80;;;8.90;;
73550;SDS011;61816;53.582;10.096;2023-04-29T07:45:08;27.13;;;9.35;;
73550;SDS011;61816;53.582;10.096;2023-04-29T07:47:33;14.02;;;7.82;;
73550;SDS011;61816;53.582;10.096;2023-04-29T07:49:59;15.80;;;8.35;;
73550;SDS011;61816;53.582;10.096;2023-04-29T07:52:24;20.48;;;8.10;;
73550;SDS011;61816;53.582;10.096;2023-04-29T07:54:50;20.48;;;8.10;;
73550;SDS011;61816;53.582;10.096;2023-04-29T07:57:16;14.75;;;7.25;;
73550;SDS011;61816;53.582;10.096;2023-04-29T07:59:41;15.73;;;8.43;;
73550;SDS011;61816;53.582;10.096;2023-04-29T08:02:06;15.90;;;8.38;;
73550;SDS011;61816;53.582;10.096;2023-04-29T08:04:31;16.67;;;8.02;;
73550;SDS011;61816;53.582;10.096;2023-04-29T08:06:58;16.77;;;8.23;;
73550;SDS011;61816;53.582;10.096;2023-04-29T08:09:23;20.13;;;8.02;;
73550;SDS011;61816;53.582;10.096;2023-04-29T08:11:49;14.27;;;7.05;;
73550;SDS011;61816;53.582;10.096;2023-04-29T08:14:14;14.55;;;7.03;;
73550;SDS011;61816;53.582;10.096;2023-04-29T08:16:40;16.05;;;6.88;;
73550;SDS011;61816;53.582;10.096;2023-04-29T08:19:05;18.70;;;7.78;;
73550;SDS011;61816;53.582;10.096;2023-04-29T08:21:30;14.60;;;7.97;;
73550;SDS011;61816;53.582;10.096;2023-04-29T08:23:56;17.35;;;8.25;;
73550;SDS011;61816;53.582;10.096;2023-04-29T08:26:22;18.90;;;8.35;;
73550;SDS011;61816;53.582;10.096;2023-04-29T08:28:47;22.20;;;7.68;;
73550;SDS011;61816;53.582;10.096;2023-04-29T08:31:16;14.60;;;7.63;;
73550;SDS011;61816;53.582;10.096;2023-04-29T08:33:43;19.85;;;8.10;;
73550;SDS011;61816;53.582;10.096;2023-04-29T08:36:08;16.48;;;8.27;;
73550;SDS011;61816;53.582;10.096;2023-04-29T08:38:33;15.32;;;7.45;;
73550;SDS011;61816;53.582;10.096;2023-04-29T08:40:59;16.08;;;7.28;;
73550;SDS011;61816;53.582;10.096;2023-04-29T08:43:25;14.98;;;6.97;;
73550;SDS011;61816;53.582;10.096;2023-04-29T08:45:51;14.20;;;7.20;;
73550;SDS011;61816;53.582;10.096;2023-04-29T08:48:17;19.70;;;6.95;;
73550;SDS011;61816;53.582;10.096;2023-04-29T08:50:43;14.23;;;7.55;;
73550;SDS011;61816;53.582;10.096;2023-04-29T08:53:09;19.60;;;7.45;;
73550;SDS011;61816;53.582;10.096;2023-04-29T08:55:40;16.95;;;7.30;;
73550;SDS011;61816;53.582;10.096;2023-04-29T08:58:07;16.00;;;8.55;;
73550;SDS011;61816;53.582;10.096;2023-04-29T09:00:33;12.85;;;6.85;;
73550;SDS011;61816;53.582;10.096;2023-04-29T09:03:00;17.45;;;7.35;;
73550;SDS011;61816;53.582;10.096;2023-04-29T09:05:35;15.18;;;7.32;;
73550;SDS011;61816;53.582;10.096;2023-04-29T09:08:00;15.60;;;8.07;;
73550;SDS011;61816;53.582;10.096;2023-04-29T09:10:27;17.42;;;7.60;;
73550;SDS011;61816;53.582;10.096;2023-04-29T09:12:56;18.33;;;8.00;;
73550;SDS011;61816;53.582;10.096;2023-04-29T09:15:24;17.92;;;8.50;;
73550;SDS011;61816;53.582;10.096;2023-04-29T09:17:50;19.35;;;9.20;;
73550;SDS011;61816;53.582;10.096;2023-04-29T09:22:47;16.75;;;8.68;;
73550;SDS011;61816;53.582;10.096;2023-04-29T09:25:31;22.67;;;10.13;;
73550;SDS011;61816;53.582;10.096;2023-04-29T09:27:56;26.58;;;10.52;;
73550;SDS011;61816;53.582;10.096;2023-04-29T09:30:22;14.13;;;9.88;;
73550;SDS011;61816;53.582;10.096;2023-04-29T09:33:06;14.68;;;9.07;;
73550;SDS011;61816;53.582;10.096;2023-04-29T09:35:33;19.10;;;8.57;;
73550;SDS011;61816;53.582;10.096;2023-04-29T09:38:14;15.48;;;9.27;;
73550;SDS011;61816;53.582;10.096;2023-04-29T09:40:41;14.30;;;7.75;;
73550;SDS011;61816;53.582;10.096;2023-04-29T09:43:25;18.23;;;8.57;;
73550;SDS011;61816;53.582;10.096;2023-04-29T09:45:51;16.80;;;9.90;;
73550;SDS011;61816;53.582;10.096;2023-04-29T09:48:16;17.58;;;9.45;;
73550;SDS011;61816;53.582;10.096;2023-04-29T09:50:43;16.25;;;9.05;;
73550;SDS011;61816;53.582;10.096;2023-04-29T09:53:09;19.42;;;8.40;;
73550;SDS011;61816;53.582;10.096;2023-04-29T09:55:36;14.15;;;8.55;;
73550;SDS011;61816;53.582;10.096;2023-04-29T09:58:31;22.77;;;8.30;;
73550;SDS011;61816;53.582;10.096;2023-04-29T10:01:04;15.70;;;8.82;;
73550;SDS011;61816;53.582;10.096;2023-04-29T10:03:34;17.05;;;8.63;;
73550;SDS011;61816;53.582;10.096;2023-04-29T10:06:02;16.07;;;6.73;;
73550;SDS011;61816;53.582;10.096;2023-04-29T10:08:31;12.73;;;7.20;;
73550;SDS011;61816;53.582;10.096;2023-04-29T10:11:03;18.23;;;7.63;;
73550;SDS011;61816;53.582;10.096;2023-04-29T10:13:29;19.88;;;8.60;;
73550;SDS011;61816;53.582;10.096;2023-04-29T10:21:16;19.25;;;7.35;;
73550;SDS011;61816;53.582;10.096;2023-04-29T10:23:46;14.02;;;7.20;;
73550;SDS011;61816;53.582;10.096;2023-04-29T10:26:12;11.13;;;6.20;;
73550;SDS011;61816;53.582;10.096;2023-04-29T10:28:40;11.88;;;5.20;;
73550;SDS011;61816;53.582;10.096;2023-04-29T10:31:09;14.45;;;5.85;;
73550;SDS011;61816;53.582;10.096;2023-04-29T10:33:37;16.75;;;6.72;;
73550;SDS011;61816;53.582;10.096;2023-04-29T10:36:07;12.35;;;5.78;;
73550;SDS011;61816;53.582;10.096;2023-04-29T10:38:35;15.15;;;6.38;;
73550;SDS011;61816;53.582;10.096;2023-04-29T10:43:34;27.35;;;12.55;;
73550;SDS011;61816;53.582;10.096;2023-04-29T10:46:19;17.30;;;6.35;;
73550;SDS011;61816;53.582;10.096;2023-04-29T10:48:54;15.38;;;6.32;;
73550;SDS011;61816;53.582;10.096;2023-04-29T10:51:31;13.30;;;6.45;;
73550;SDS011;61816;53.582;10.096;2023-04-29T10:54:08;12.85;;;7.13;;
73550;SDS011;61816;53.582;10.096;2023-04-29T10:59:13;20.40;;;8.05;;
73550;SDS011;61816;53.582;10.096;2023-04-29T11:01:46;21.10;;;7.68;;
73550;SDS011;61816;53.582;10.096;2023-04-29T11:04:13;15.32;;;7.10;;
73550;SDS011;61816;53.582;10.096;2023-04-29T11:06:40;18.00;;;8.40;;
73550;SDS011;61816;53.582;10.096;2023-04-29T11:09:12;11.48;;;7.72;;
73550;SDS011;61816;53.582;10.096;2023-04-29T11:11:45;21.60;;;9.30;;
73550;SDS011;61816;53.582;10.096;2023-04-29T11:14:22;16.85;;;9.07;;
73550;SDS011;61816;53.582;10.096;2023-04-29T11:16:53;18.38;;;11.73;;
73550;SDS011;61816;53.582;10.096;2023-04-29T11:19:23;17.30;;;8.48;;
73550;SDS011;61816;53.582;10.096;2023-04-29T11:22:02;18.27;;;8.88;;
73550;SDS011;61816;53.582;10.096;2023-04-29T11:24:33;15.32;;;8.18;;
73550;SDS011;61816;53.582;10.096;2023-04-29T11:26:59;15.15;;;8.48;;
73550;SDS011;61816;53.582;10.096;2023-04-29T11:29:29;16.35;;;8.40;;
73550;SDS011;61816;53.582;10.096;2023-04-29T11:32:02;16.27;;;8.45;;
73550;SDS011;61816;53.582;10.096;2023-04-29T11:36:53;28.88;;;16.08;;
73550;SDS011;61816;53.582;10.096;2023-04-29T11:39:18;20.23;;;11.85;;
73550;SDS011;61816;53.582;10.096;2023-04-29T11:41:44;69.40;;;37.78;;
73550;SDS011;61816;53.582;10.096;2023-04-29T11:44:10;37.80;;;18.48;;
73550;SDS011;61816;53.582;10.096;2023-04-29T11:46:36;20.40;;;8.82;;
73550;SDS011;61816;53.582;10.096;2023-04-29T11:49:01;19.17;;;8.55;;
73550;SDS011;61816;53.582;10.096;2023-04-29T11:51:27;20.85;;;10.07;;
73550;SDS011;61816;53.582;10.096;2023-04-29T11:53:53;13.05;;;8.57;;
73550;SDS011;61816;53.582;10.096;2023-04-29T11:56:22;15.05;;;8.55;;
73550;SDS011;61816;53.582;10.096;2023-04-29T11:58:49;17.38;;;9.68;;
73550;SDS011;61816;53.582;10.096;2023-04-29T12:01:18;13.77;;;8.68;;
73550;SDS011;61816;53.582;10.096;2023-04-29T12:03:45;18.02;;;7.90;;
73550;SDS011;61816;53.582;10.096;2023-04-29T12:06:12;17.88;;;9.52;;
73550;SDS011;61816;53.582;10.096;2023-04-29T12:08:38;22.50;;;12.35;;
73550;SDS011;61816;53.582;10.096;2023-04-29T12:11:05;19.90;;;12.05;;
73550;SDS011;61816;53.582;10.096;2023-04-29T12:13:31;17.60;;;9.73;;
73550;SDS011;61816;53.582;10.096;2023-04-29T12:16:00;22.25;;;8.13;;
73550;SDS011;61816;53.582;10.096;2023-04-29T12:18:26;16.20;;;9.35;;
73550;SDS011;61816;53.582;10.096;2023-04-29T12:20:52;21.23;;;11.75;;
73550;SDS011;61816;53.582;10.096;2023-04-29T12:23:22;11.85;;;7.25;;
73550;SDS011;61816;53.582;10.096;2023-04-29T12:25:57;12.65;;;6.80;;
73550;SDS011;61816;53.582;10.096;2023-04-29T12:28:23;12.43;;;7.43;;
73550;SDS011;61816;53.582;10.096;2023-04-29T12:30:50;10.90;;;6.72;;
73550;SDS011;61816;53.582;10.096;2023-04-29T12:33:24;15.52;;;7.22;;
73550;SDS011;61816;53.582;10.096;2023-04-29T12:35:51;16.88;;;8.10;;
73550;SDS011;61816;53.582;10.096;2023-04-29T12:38:19;11.73;;;7.15;;
73550;SDS011;61816;53.582;10.096;2023-04-29T12:40:55;56.28;;;19.35;;
73550;SDS011;61816;53.582;10.096;2023-04-29T12:43:28;11.63;;;6.63;;
73550;SDS011;61816;53.582;10.096;2023-04-29T12:46:01;12.63;;;6.15;;
73550;SDS011;61816;53.582;10.096;2023-04-29T12:48:30;14.70;;;4.70;;
73550;SDS011;61816;53.582;10.096;2023-04-29T12:50:56;13.20;;;6.50;;
73550;SDS011;61816;53.582;10.096;2023-04-29T12:53:23;9.93;;;5.65;;
73550;SDS011;61816;53.582;10.096;2023-04-29T12:55:49;26.17;;;13.57;;
73550;SDS011;61816;53.582;10.096;2023-04-29T12:58:15;11.88;;;5.80;;
73550;SDS011;61816;53.582;10.096;2023-04-29T13:00:40;15.73;;;5.60;;
73550;SDS011;61816;53.582;10.096;2023-04-29T13:03:06;17.75;;;6.95;;
73550;SDS011;61816;53.582;10.096;2023-04-29T13:05:31;22.65;;;9.98;;
73550;SDS011;61816;53.582;10.096;2023-04-29T13:07:57;15.38;;;7.00;;
73550;SDS011;61816;53.582;10.096;2023-04-29T13:10:22;12.52;;;6.18;;
73550;SDS011;61816;53.582;10.096;2023-04-29T13:12:47;14.73;;;5.82;;
73550;SDS011;61816;53.582;10.096;2023-04-29T13:15:13;17.48;;;6.22;;
73550;SDS011;61816;53.582;10.096;2023-04-29T13:17:39;15.32;;;7.80;;
73550;SDS011;61816;53.582;10.096;2023-04-29T13:20:05;19.73;;;7.43;;
73550;SDS011;61816;53.582;10.096;2023-04-29T13:22:32;22.25;;;7.10;;
73550;SDS011;61816;53.582;10.096;2023-04-29T13:24:58;14.98;;;6.57;;
73550;SDS011;61816;53.582;10.096;2023-04-29T13:27:23;20.75;;;6.80;;
73550;SDS011;61816;53.582;10.096;2023-04-29T13:29:49;15.43;;;7.57;;
73550;SDS011;61816;53.582;10.096;2023-04-29T13:32:14;13.50;;;7.10;;
73550;SDS011;61816;53.582;10.096;2023-04-29T13:34:40;13.55;;;7.55;;
73550;SDS011;61816;53.582;10.096;2023-04-29T13:37:07;14.07;;;6.00;;
73550;SDS011;61816;53.582;10.096;2023-04-29T13:39:33;15.18;;;5.95;;
73550;SDS011;61816;53.582;10.096;2023-04-29T13:41:58;19.60;;;9.82;;
73550;SDS011;61816;53.582;10.096;2023-04-29T13:44:24;35.40;;;18.27;;
73550;SDS011;61816;53.582;10.096;2023-04-29T13:46:49;11.98;;;5.90;;
73550;SDS011;61816;53.582;10.096;2023-04-29T13:49:15;20.85;;;5.03;;
73550;SDS011;61816;53.582;10.096;2023-04-29T13:51:41;25.55;;;12.52;;
73550;SDS011;61816;53.582;10.096;2023-04-29T13:54:06;10.65;;;4.40;;
73550;SDS011;61816;53.582;10.096;2023-04-29T13:56:31;12.18;;;3.92;;
73550;SDS011;61816;53.582;10.096;2023-04-29T13:58:57;23.20;;;12.50;;
73550;SDS011;61816;53.582;10.096;2023-04-29T14:01:22;12.57;;;3.65;;
73550;SDS011;61816;53.582;10.096;2023-04-29T14:03:48;15.50;;;7.13;;
73550;SDS011;61816;53.582;10.096;2023-04-29T14:06:13;65.25;;;37.10;;
73550;SDS011;61816;53.582;10.096;2023-04-29T14:08:39;24.63;;;12.35;;
73550;SDS011;61816;53.582;10.096;2023-04-29T14:11:04;7.90;;;3.17;;
73550;SDS011;61816;53.582;10.096;2023-04-29T14:13:29;17.90;;;8.52;;
73550;SDS011;61816;53.582;10.096;2023-04-29T14:15:55;14.07;;;7.72;;
73550;SDS011;61816;53.582;10.096;2023-04-29T14:18:20;28.45;;;12.90;;
73550;SDS011;61816;53.582;10.096;2023-04-29T14:20:46;20.00;;;10.18;;
73550;SDS011;61816;53.582;10.096;2023-04-29T14:23:11;13.77;;;7.20;;
73550;SDS011;61816;53.582;10.096;2023-04-29T14:25:37;11.55;;;4.38;;
73550;SDS011;61816;53.582;10.096;2023-04-29T14:28:02;11.95;;;5.75;;
73550;SDS011;61816;53.582;10.096;2023-04-29T14:30:28;30.40;;;14.88;;
73550;SDS011;61816;53.582;10.096;2023-04-29T14:32:53;24.63;;;12.88;;
73550;SDS011;61816;53.582;10.096;2023-04-29T14:35:18;14.95;;;8.00;;